Time;durP1;ratioP1;P1;durP2;ratioP2;P2;SDS_P1;SDS_P2;PMS_P1;PMS_P2;Temp;Humidity;BMP_temperature;BMP_pressure;BME280_temperature;BME280_humidity;BME280_pressure;Samples;Min_cycle;Max_cycle;Signal;HPM_P1;HPM_P2
2023/04/14 00:01:14;;;;;;;4.88;2.20;;;11.60;70.40;;;;;;5003303;28;20102;-81
2023/04/14 00:03:41;;;;;;;3.22;2.50;;;11.60;70.40;;;;;;5036038;28;20496;-82
2023/04/14 00:06:06;;;;;;;3.22;2.10;;;11.60;70.40;;;;;;5003380;28;20432;-82
2023/04/14 00:08:32;;;;;;;2.95;2.00;;;11.50;70.40;;;;;;5053230;28;20033;-83
2023/04/14 00:10:58;;;;;;;2.70;2.10;;;11.50;70.40;;;;;;5002737;28;20096;-82
2023/04/14 00:13:24;;;;;;;3.22;2.20;;;11.40;70.40;;;;;;5036438;28;20112;-82
2023/04/14 00:15:49;;;;;;;3.45;2.13;;;11.50;70.40;;;;;;5003180;28;20075;-86
2023/04/14 00:18:15;;;;;;;2.85;1.90;;;11.40;70.40;;;;;;5019704;28;20025;-82
2023/04/14 00:20:41;;;;;;;2.95;2.00;;;11.40;70.50;;;;;;5020040;28;20390;-82
2023/04/14 00:23:07;;;;;;;3.20;2.35;;;11.30;70.50;;;;;;5036431;28;20069;-81
2023/04/14 00:25:32;;;;;;;4.10;2.45;;;11.30;70.50;;;;;;5019784;28;20060;-81
2023/04/14 00:27:58;;;;;;;4.53;2.20;;;11.30;70.50;;;;;;5002865;28;20546;-83
2023/04/14 00:30:24;;;;;;;3.30;2.30;;;11.20;70.50;;;;;;5003020;28;20035;-82
2023/04/14 00:32:50;;;;;;;2.78;2.10;;;11.20;70.50;;;;;;5019841;28;20035;-85
2023/04/14 00:35:15;;;;;;;3.83;2.40;;;11.10;70.50;;;;;;5020073;28;20045;-80
2023/04/14 00:37:41;;;;;;;3.20;2.25;;;11.10;70.70;;;;;;5022658;28;20450;-82
2023/04/14 00:40:09;;;;;;;2.85;2.25;;;11.10;70.70;;;;;;5022871;28;20021;-84
2023/04/14 00:42:46;;;;;;;2.60;2.13;;;11.00;70.70;;;;;;5039214;28;20107;-81
2023/04/14 00:45:13;;;;;;;2.97;2.00;;;11.00;70.70;;;;;;5038937;28;20037;-82
2023/04/14 00:47:40;;;;;;;3.33;2.53;;;11.00;70.80;;;;;;5022374;28;20029;-83
2023/04/14 00:50:08;;;;;;;3.13;2.20;;;10.90;70.80;;;;;;5022243;28;20116;-83
2023/04/14 00:52:36;;;;;;;2.45;2.13;;;10.90;70.80;;;;;;5022709;28;20029;-82
2023/04/14 00:55:06;;;;;;;2.47;2.13;;;10.90;70.90;;;;;;5006705;28;20068;-82
2023/04/14 00:57:32;;;;;;;3.33;2.40;;;10.80;70.90;;;;;;5021979;28;20050;-82
2023/04/14 00:59:59;;;;;;;3.25;2.40;;;10.80;70.90;;;;;;5056408;28;20105;-81
2023/04/14 01:02:25;;;;;;;2.85;2.17;;;10.70;70.90;;;;;;5006795;28;20035;-83
2023/04/14 01:04:51;;;;;;;2.35;2.10;;;10.70;70.90;;;;;;5039199;28;20104;-81
2023/04/14 01:07:19;;;;;;;3.08;2.20;;;10.70;71.00;;;;;;5039510;28;20087;-81
2023/04/14 01:09:45;;;;;;;3.28;2.45;;;10.60;71.00;;;;;;5038831;28;20051;-81
2023/04/14 01:12:10;;;;;;;3.67;2.30;;;10.60;71.00;;;;;;5022098;28;20473;-82
2023/04/14 01:14:45;;;;;;;2.72;2.05;;;10.60;71.10;;;;;;5022520;28;20025;-84
2023/04/14 01:17:42;;;;;;;2.25;2.00;;;10.50;71.10;;;;;;5038550;28;20033;-80
2023/04/14 01:20:15;;;;;;;3.25;2.05;;;10.50;71.20;;;;;;5045265;28;20052;-85
2023/04/14 01:23:06;;;;;;;3.10;2.10;;;10.40;71.80;;;;;;5031748;28;20029;-82
2023/04/14 01:26:09;;;;;;;2.88;1.92;;;10.40;71.30;;;;;;5044335;28;20488;-81
2023/04/14 01:29:00;;;;;;;3.47;2.40;;;10.30;71.30;;;;;;5039061;28;20055;-82
2023/04/14 01:31:37;;;;;;;3.03;2.22;;;10.30;71.40;;;;;;5022375;28;20040;-82
2023/04/14 01:34:49;;;;;;;3.65;2.72;;;10.20;71.40;;;;;;5038227;28;20025;-84
2023/04/14 01:37:17;;;;;;;3.20;2.30;;;10.20;71.50;;;;;;5020763;28;20048;-82
2023/04/14 01:39:51;;;;;;;2.38;2.17;;;10.10;71.50;;;;;;5005391;28;20128;-82
2023/04/14 01:42:22;;;;;;;4.40;2.50;;;10.10;71.60;;;;;;5021581;28;20453;-81
2023/04/14 01:44:55;;;;;;;3.38;2.40;;;10.10;71.70;;;;;;5021996;28;20059;-87
2023/04/14 01:47:23;;;;;;;3.35;2.17;;;10.10;71.70;;;;;;5021043;28;20029;-87
2023/04/14 01:49:52;;;;;;;3.90;2.50;;;10.00;71.70;;;;;;5021642;28;20377;-82
2023/04/14 01:52:19;;;;;;;3.72;2.50;;;10.00;71.70;;;;;;5055827;28;20029;-81
2023/04/14 01:54:49;;;;;;;2.40;2.17;;;10.00;71.70;;;;;;5037603;28;20024;-83
2023/04/14 01:57:19;;;;;;;3.25;2.45;;;9.90;71.70;;;;;;5020511;28;20037;-82
2023/04/14 01:59:47;;;;;;;3.40;2.40;;;9.90;71.80;;;;;;5021270;28;20064;-83
2023/04/14 02:02:15;;;;;;;3.40;2.30;;;9.90;71.80;;;;;;5020792;28;20128;-81
2023/04/14 02:04:42;;;;;;;3.67;2.80;;;9.80;71.80;;;;;;5054702;28;20124;-82
2023/04/14 02:07:10;;;;;;;4.22;2.63;;;9.80;71.90;;;;;;5037802;28;20036;-88
2023/04/14 02:09:40;;;;;;;3.55;2.47;;;9.80;71.90;;;;;;5037370;28;20029;-81
2023/04/14 02:12:09;;;;;;;3.78;2.42;;;9.80;71.90;;;;;;5021055;28;20029;-81
2023/04/14 02:14:36;;;;;;;3.90;2.63;;;9.70;71.90;;;;;;5037251;28;20104;-84
2023/04/14 02:17:04;;;;;;;2.97;2.33;;;9.70;71.90;;;;;;5020670;28;20025;-82
2023/04/14 02:19:31;;;;;;;3.08;2.47;;;9.70;72.00;;;;;;5037257;28;20025;-82
2023/04/14 02:21:59;;;;;;;2.83;2.30;;;9.60;71.90;;;;;;5020722;28;20457;-84
2023/04/14 02:24:25;;;;;;;3.10;2.35;;;9.60;72.00;;;;;;5020616;28;20119;-82
2023/04/14 02:27:12;;;;;;;3.15;2.75;;;9.60;72.00;;;;;;5004538;28;20033;-83
2023/04/14 02:29:44;;;;;;;4.10;2.70;;;9.60;72.10;;;;;;5020131;28;20108;-82
2023/04/14 02:32:20;;;;;;;2.70;2.17;;;9.50;72.00;;;;;;5037245;28;20053;-84
2023/04/14 02:35:26;;;;;;;3.08;2.40;;;9.50;72.00;;;;;;5020451;28;20025;-83
2023/04/14 02:38:04;;;;;;;2.42;2.20;;;9.50;72.10;;;;;;5016345;28;20398;-81
2023/04/14 02:40:36;;;;;;;2.50;2.25;;;9.50;72.00;;;;;;5036893;28;20029;-82
2023/04/14 02:43:10;;;;;;;2.67;2.40;;;9.40;72.00;;;;;;5020448;28;20540;-84
2023/04/14 02:45:38;;;;;;;4.28;2.53;;;9.40;72.10;;;;;;5036756;28;20036;-85
2023/04/14 02:48:08;;;;;;;3.40;2.63;;;9.40;72.10;;;;;;5036450;28;20021;-82
2023/04/14 02:50:35;;;;;;;2.92;2.30;;;9.30;72.10;;;;;;5020535;28;20021;-81
2023/04/14 02:53:12;;;;;;;2.88;2.30;;;9.30;72.10;;;;;;5036769;28;20033;-82
2023/04/14 02:55:38;;;;;;;3.67;2.58;;;9.30;72.10;;;;;;5037472;28;20118;-83
2023/04/14 02:58:04;;;;;;;3.40;2.67;;;9.20;72.10;;;;;;5019862;28;20021;-82
2023/04/14 03:00:35;;;;;;;4.13;2.65;;;9.20;72.10;;;;;;5005007;28;20037;-81
2023/04/14 03:03:03;;;;;;;3.95;2.63;;;9.20;72.20;;;;;;5036842;28;20068;-82
2023/04/14 03:05:29;;;;;;;2.78;2.25;;;9.20;72.20;;;;;;5036775;28;20021;-83
2023/04/14 03:08:04;;;;;;;4.28;2.80;;;9.20;72.20;;;;;;5021320;28;20052;-84
2023/04/14 03:10:32;;;;;;;3.72;2.63;;;9.10;72.20;;;;;;5020243;28;20087;-82
2023/04/14 03:13:01;;;;;;;3.92;2.60;;;9.10;72.20;;;;;;5004721;28;20025;-82
2023/04/14 03:15:29;;;;;;;3.45;2.55;;;9.10;72.20;;;;;;5019772;28;20036;-80
2023/04/14 03:17:56;;;;;;;3.60;2.60;;;9.10;72.30;;;;;;5004009;28;20381;-82
2023/04/14 03:20:25;;;;;;;3.25;2.65;;;9.00;72.30;;;;;;5036635;28;20456;-82
2023/04/14 03:22:57;;;;;;;2.85;2.30;;;9.00;72.30;;;;;;5003629;28;20079;-81
2023/04/14 03:25:29;;;;;;;3.35;2.60;;;9.00;72.30;;;;;;5004770;28;20029;-81
2023/04/14 03:28:01;;;;;;;3.33;2.72;;;9.00;72.30;;;;;;5004169;28;20051;-80
2023/04/14 03:30:30;;;;;;;3.90;3.35;;;9.00;72.40;;;;;;5020738;28;20366;-81
2023/04/14 03:33:03;;;;;;;3.03;2.55;;;8.90;72.40;;;;;;5036372;28;20477;-82
2023/04/14 03:35:29;;;;;;;3.95;2.83;;;8.90;72.30;;;;;;5020081;28;20036;-81
2023/04/14 03:37:58;;;;;;;3.20;2.50;;;8.90;72.30;;;;;;5003107;28;20492;-85
2023/04/14 03:40:32;;;;;;;4.05;2.97;;;8.90;72.30;;;;;;5004240;28;20029;-81
2023/04/14 03:43:01;;;;;;;3.58;2.75;;;8.80;72.20;;;;;;5036834;28;20051;-81
2023/04/14 03:45:27;;;;;;;3.53;2.80;;;8.80;72.30;;;;;;5036234;28;20033;-80
2023/04/14 03:48:01;;;;;;;4.13;2.70;;;8.80;72.30;;;;;;5036791;28;20037;-81
2023/04/14 03:50:34;;;;;;;3.88;2.90;;;8.80;72.40;;;;;;5036813;28;20029;-81
2023/04/14 03:53:00;;;;;;;4.70;3.20;;;8.70;72.30;;;;;;5036891;28;20025;-84
2023/04/14 03:55:30;;;;;;;3.97;2.90;;;8.70;72.30;;;;;;5022378;28;20434;-82
2023/04/14 03:57:58;;;;;;;3.58;2.80;;;8.70;72.30;;;;;;5025215;28;20053;-82
2023/04/14 04:00:26;;;;;;;4.40;3.00;;;8.70;72.30;;;;;;5027503;28;20077;-82
2023/04/14 04:02:53;;;;;;;3.17;2.70;;;8.60;72.30;;;;;;5011929;28;20034;-83
2023/04/14 04:05:20;;;;;;;3.83;3.00;;;8.60;72.30;;;;;;5022968;28;20029;-82
2023/04/14 04:07:49;;;;;;;3.13;2.63;;;8.60;72.30;;;;;;5020126;28;20033;-81
2023/04/14 04:10:16;;;;;;;4.13;2.90;;;8.60;72.40;;;;;;5036629;28;20025;-82
2023/04/14 04:12:47;;;;;;;3.67;3.00;;;8.50;72.30;;;;;;5040004;28;20093;-82
2023/04/14 04:15:15;;;;;;;3.58;2.80;;;8.50;72.30;;;;;;5039762;28;20135;-83
2023/04/14 04:17:42;;;;;;;4.22;2.83;;;8.50;72.30;;;;;;5008064;28;20056;-82
2023/04/14 04:20:12;;;;;;;3.03;2.60;;;8.50;72.40;;;;;;5007494;28;20039;-82
2023/04/14 04:22:41;;;;;;;3.17;2.63;;;8.50;72.40;;;;;;5039822;28;20037;-82
2023/04/14 04:25:10;;;;;;;4.05;2.90;;;8.40;72.30;;;;;;5039216;28;20033;-84
2023/04/14 04:27:37;;;;;;;3.83;2.97;;;8.40;72.40;;;;;;5007983;28;20056;-81
2023/04/14 04:30:13;;;;;;;3.53;2.95;;;8.40;72.40;;;;;;5039961;28;20061;-82
2023/04/14 04:32:39;;;;;;;4.25;2.70;;;8.40;72.40;;;;;;5023342;28;20132;-82
2023/04/14 04:35:07;;;;;;;3.65;2.83;;;8.40;72.40;;;;;;5023709;28;20057;-85
2023/04/14 04:37:33;;;;;;;4.35;3.08;;;8.40;72.40;;;;;;5024162;28;20059;-85
2023/04/14 04:40:00;;;;;;;3.88;3.10;;;8.30;72.40;;;;;;5024189;28;20120;-85
2023/04/14 04:42:27;;;;;;;4.60;3.38;;;8.30;72.40;;;;;;5023365;28;20061;-84
2023/04/14 04:44:54;;;;;;;3.50;2.67;;;8.30;72.40;;;;;;5007704;28;20106;-85
2023/04/14 04:47:20;;;;;;;4.05;2.97;;;8.30;72.40;;;;;;5006788;28;20131;-85
2023/04/14 04:49:46;;;;;;;3.88;2.90;;;8.20;72.40;;;;;;5039276;28;20029;-84
2023/04/14 04:52:11;;;;;;;4.05;2.80;;;8.20;72.40;;;;;;5057011;28;20116;-82
2023/04/14 04:54:37;;;;;;;3.90;2.90;;;8.30;72.40;;;;;;5023170;28;20036;-82
2023/04/14 04:57:03;;;;;;;3.78;3.00;;;8.20;72.40;;;;;;5022809;28;20473;-82
2023/04/14 04:59:29;;;;;;;3.67;3.08;;;8.10;72.30;;;;;;5056756;28;20120;-86
2023/04/14 05:01:54;;;;;;;4.88;3.25;;;8.10;72.40;;;;;;5007070;28;20029;-83
2023/04/14 05:04:20;;;;;;;4.00;2.80;;;8.20;72.40;;;;;;5006531;28;20369;-86
2023/04/14 05:06:46;;;;;;;5.65;3.35;;;8.10;72.40;;;;;;5039755;28;20047;-86
2023/04/14 05:09:12;;;;;;;4.45;3.28;;;8.10;72.40;;;;;;5023872;28;20370;-82
2023/04/14 05:11:38;;;;;;;4.63;3.13;;;8.10;72.50;;;;;;5022969;28;20033;-84
2023/04/14 05:14:03;;;;;;;4.00;2.92;;;8.00;72.40;;;;;;5039225;28;20037;-84
2023/04/14 05:16:30;;;;;;;5.03;3.40;;;8.00;72.40;;;;;;5038306;28;20132;-84
2023/04/14 05:18:56;;;;;;;4.40;3.08;;;8.00;72.40;;;;;;5023121;28;20100;-86
2023/04/14 05:21:21;;;;;;;3.50;2.83;;;8.00;72.40;;;;;;5005669;28;20435;-85
2023/04/14 05:23:47;;;;;;;4.35;3.28;;;8.00;72.50;;;;;;5006815;28;20525;-84
2023/04/14 05:26:14;;;;;;;4.75;3.15;;;8.00;72.40;;;;;;5006123;28;20040;-83
2023/04/14 05:28:40;;;;;;;4.22;3.22;;;8.00;72.50;;;;;;5056078;28;20029;-82
2023/04/14 05:31:06;;;;;;;4.55;3.20;;;7.90;72.40;;;;;;5038413;28;20025;-83
2023/04/14 05:33:33;;;;;;;4.43;3.25;;;7.90;72.40;;;;;;5006508;28;20386;-84
2023/04/14 05:35:59;;;;;;;3.92;3.05;;;7.90;72.50;;;;;;5021955;28;20526;-84
2023/04/14 05:38:26;;;;;;;3.95;2.75;;;7.90;72.50;;;;;;5021879;28;20071;-85
2023/04/14 05:40:52;;;;;;;4.57;3.20;;;7.90;72.50;;;;;;5005637;28;20079;-83
2023/04/14 05:43:18;;;;;;;4.80;3.30;;;7.90;73.10;;;;;;5038787;28;20064;-86
2023/04/14 05:45:47;;;;;;;5.85;3.40;;;7.90;72.50;;;;;;5005357;28;20474;-84
2023/04/14 05:48:13;;;;;;;5.30;3.63;;;7.80;72.50;;;;;;5021667;28;20035;-83
2023/04/14 05:50:39;;;;;;;3.85;3.33;;;7.80;72.50;;;;;;5006179;28;20211;-86
2023/04/14 05:53:06;;;;;;;5.15;3.17;;;7.80;72.50;;;;;;5021828;28;20454;-82
2023/04/14 05:55:32;;;;;;;4.35;3.08;;;7.80;72.50;;;;;;5021234;28;20061;-84
2023/04/14 05:57:58;;;;;;;4.47;3.38;;;7.80;72.50;;;;;;5037789;28;20064;-84
2023/04/14 06:00:24;;;;;;;5.53;3.25;;;7.80;72.50;;;;;;5021217;28;20469;-84
2023/04/14 06:02:51;;;;;;;4.05;3.20;;;7.80;72.60;;;;;;5037722;28;20078;-85
2023/04/14 06:05:17;;;;;;;3.60;2.90;;;7.80;72.60;;;;;;5021163;28;20025;-84
2023/04/14 06:07:43;;;;;;;4.57;3.38;;;7.80;72.60;;;;;;5005440;28;20526;-84
2023/04/14 06:10:09;;;;;;;4.65;3.42;;;7.70;72.60;;;;;;5004812;28;20063;-85
2023/04/14 06:12:36;;;;;;;4.05;3.22;;;7.70;72.60;;;;;;5004918;28;20154;-84
2023/04/14 06:15:04;;;;;;;4.25;3.10;;;7.70;72.60;;;;;;5021226;28;20143;-84
2023/04/14 06:17:30;;;;;;;4.20;3.33;;;7.70;72.60;;;;;;5055531;28;20094;-84
2023/04/14 06:19:57;;;;;;;4.13;3.13;;;7.70;72.60;;;;;;5005018;28;20112;-84
2023/04/14 06:22:27;;;;;;;4.68;3.20;;;7.70;72.60;;;;;;5038122;28;20163;-84
2023/04/14 06:24:53;;;;;;;4.78;3.35;;;7.70;72.60;;;;;;5054998;28;20029;-83
2023/04/14 06:27:19;;;;;;;4.60;3.30;;;7.70;72.60;;;;;;5020511;28;20033;-85
2023/04/14 06:29:45;;;;;;;4.20;3.17;;;7.70;72.70;;;;;;5021530;28;20037;-84
2023/04/14 06:32:11;;;;;;;4.18;3.30;;;7.70;72.70;;;;;;5021003;28;20516;-84
2023/04/14 06:34:37;;;;;;;5.57;3.30;;;7.70;72.70;;;;;;5005018;28;20369;-83
2023/04/14 06:37:02;;;;;;;4.53;3.38;;;7.70;72.70;;;;;;5031733;28;20033;-83
2023/04/14 06:39:29;;;;;;;5.63;3.50;;;7.70;72.70;;;;;;5009863;28;20069;-83
2023/04/14 06:41:55;;;;;;;4.53;3.05;;;7.70;72.70;;;;;;5041834;28;20482;-86
2023/04/14 06:44:22;;;;;;;4.03;2.90;;;7.70;72.70;;;;;;5034758;28;20489;-83
2023/04/14 06:46:47;;;;;;;4.25;3.30;;;7.70;72.70;;;;;;5034125;28;20035;-85
2023/04/14 06:49:15;;;;;;;3.85;3.03;;;7.70;72.70;;;;;;5017513;28;20068;-88
2023/04/14 06:51:41;;;;;;;4.38;3.25;;;7.70;72.70;;;;;;5001217;28;20031;-84
2023/04/14 06:54:07;;;;;;;4.13;3.13;;;7.80;72.80;;;;;;5017451;28;20100;-83
2023/04/14 06:56:32;;;;;;;4.57;3.20;;;7.70;72.70;;;;;;5033403;28;20128;-83
2023/04/14 06:58:58;;;;;;;5.10;3.25;;;7.70;72.80;;;;;;5018090;28;20423;-93
2023/04/14 07:01:24;;;;;;;5.70;3.20;;;7.70;72.70;;;;;;5020153;28;20125;-94
2023/04/14 07:03:50;;;;;;;4.35;3.13;;;7.70;72.80;;;;;;5018480;28;20034;-85
2023/04/14 07:06:16;;;;;;;4.40;3.30;;;7.80;72.80;;;;;;5000716;28;20036;-87
2023/04/14 07:08:42;;;;;;;4.78;3.47;;;7.70;72.80;;;;;;5017284;28;20025;-81
2023/04/14 07:11:10;;;;;;;4.57;3.10;;;7.80;72.80;;;;;;5033128;28;20033;-84
2023/04/14 07:13:37;;;;;;;4.18;3.10;;;7.80;72.90;;;;;;5016622;28;20014;-83
2023/04/14 07:16:07;;;;;;;3.75;2.80;;;7.80;72.90;;;;;;5032594;28;20041;-82
2023/04/14 07:18:34;;;;;;;5.20;3.40;;;7.80;72.80;;;;;;5016463;28;20029;-85
2023/04/14 07:21:00;;;;;;;3.03;2.58;;;7.80;72.80;;;;;;5016331;28;20105;-82
2023/04/14 07:23:26;;;;;;;4.13;3.08;;;7.80;72.80;;;;;;5032803;28;20032;-83
2023/04/14 07:25:57;;;;;;;5.43;3.10;;;7.80;72.80;;;;;;5016391;28;20033;-82
2023/04/14 07:28:25;;;;;;;4.88;3.40;;;7.80;72.80;;;;;;5034165;28;20056;-82
2023/04/14 07:30:52;;;;;;;3.95;2.88;;;7.80;72.80;;;;;;5034019;28;20026;-82
2023/04/14 07:33:18;;;;;;;4.60;3.20;;;7.90;72.90;;;;;;5000205;28;20064;-82
2023/04/14 07:35:45;;;;;;;4.75;3.35;;;7.90;72.90;;;;;;5016419;28;20033;-82
2023/04/14 07:38:11;;;;;;;4.35;3.10;;;7.90;72.90;;;;;;5033023;28;20097;-82
2023/04/14 07:40:37;;;;;;;4.90;3.13;;;7.90;72.90;;;;;;5016174;28;20033;-82
2023/04/14 07:43:03;;;;;;;4.00;2.92;;;7.90;72.90;;;;;;5016651;28;20079;-85
2023/04/14 07:45:30;;;;;;;3.45;2.83;;;7.90;72.90;;;;;;5035699;28;20378;-81
2023/04/14 07:47:56;;;;;;;4.95;3.00;;;7.90;73.00;;;;;;5037174;28;20061;-83
2023/04/14 07:50:22;;;;;;;3.38;2.65;;;7.90;73.00;;;;;;5020365;28;20041;-82
2023/04/14 07:52:47;;;;;;;3.65;2.60;;;8.00;73.00;;;;;;5020375;28;20022;-82
2023/04/14 07:55:13;;;;;;;3.65;2.80;;;8.00;73.00;;;;;;5020419;28;20034;-82
2023/04/14 07:57:39;;;;;;;3.78;2.85;;;8.00;73.00;;;;;;5020342;28;20030;-83
2023/04/14 08:00:08;;;;;;;3.63;2.60;;;8.00;73.00;;;;;;5037487;28;20506;-83
2023/04/14 08:02:43;;;;;;;4.50;2.65;;;8.10;73.00;;;;;;5021725;28;20398;-84
2023/04/14 08:05:09;;;;;;;3.58;2.83;;;8.10;73.00;;;;;;5036957;28;20139;-82
2023/04/14 08:07:35;;;;;;;3.25;2.47;;;8.10;73.00;;;;;;5020064;28;20064;-82
2023/04/14 08:10:01;;;;;;;3.88;2.70;;;8.10;73.00;;;;;;5036775;28;20040;-83
2023/04/14 08:12:27;;;;;;;3.15;2.42;;;8.10;73.00;;;;;;5037274;28;20029;-84
2023/04/14 08:14:53;;;;;;;3.88;2.53;;;8.20;73.10;;;;;;5003554;28;20396;-84
2023/04/14 08:17:19;;;;;;;3.30;2.40;;;8.20;73.10;;;;;;5037648;28;20033;-91
2023/04/14 08:19:45;;;;;;;3.95;2.58;;;8.20;73.10;;;;;;5036447;28;20029;-84
2023/04/14 08:22:11;;;;;;;5.70;2.85;;;8.20;73.10;;;;;;5003550;28;20497;-84
2023/04/14 08:24:37;;;;;;;4.18;2.70;;;8.30;73.10;;;;;;5019719;28;20037;-82
2023/04/14 08:27:05;;;;;;;3.97;2.50;;;8.30;73.10;;;;;;5036464;28;20032;-83
2023/04/14 08:29:30;;;;;;;2.83;2.22;;;8.30;73.10;;;;;;5035998;28;20038;-82
2023/04/14 08:31:56;;;;;;;3.17;2.33;;;8.40;73.10;;;;;;5019690;28;20075;-86
2023/04/14 08:34:22;;;;;;;3.10;2.47;;;8.40;73.00;;;;;;5019796;28;20049;-82
2023/04/14 08:36:48;;;;;;;3.30;2.30;;;8.50;73.10;;;;;;5035864;28;20044;-82
2023/04/14 08:39:14;;;;;;;3.40;2.25;;;8.50;73.00;;;;;;5019715;28;20053;-83
2023/04/14 08:41:41;;;;;;;2.50;2.15;;;8.60;73.00;;;;;;5036351;28;20036;-83
2023/04/14 08:44:07;;;;;;;2.95;2.20;;;8.60;73.00;;;;;;5036684;28;20119;-82
2023/04/14 08:46:34;;;;;;;2.83;2.28;;;8.70;72.90;;;;;;5035939;28;20041;-83
2023/04/14 08:49:15;;;;;;;2.75;2.13;;;8.80;72.90;;;;;;5019826;28;20045;-83
2023/04/14 08:51:43;;;;;;;3.95;2.15;;;8.80;72.90;;;;;;5019517;28;20041;-83
2023/04/14 08:54:10;;;;;;;3.15;2.08;;;8.90;72.80;;;;;;5019361;28;20017;-83
2023/04/14 08:56:41;;;;;;;2.28;1.92;;;9.00;72.80;;;;;;5036736;28;20037;-82
2023/04/14 08:59:09;;;;;;;3.30;2.30;;;9.00;72.60;;;;;;5035988;28;20112;-84
2023/04/14 09:01:36;;;;;;;2.00;1.75;;;9.10;72.60;;;;;;5036151;28;20052;-83
2023/04/14 09:04:03;;;;;;;2.70;1.98;;;9.20;72.60;;;;;;5037834;28;20021;-83
2023/04/14 09:06:33;;;;;;;5.28;2.17;;;9.30;72.50;;;;;;5039342;28;20029;-82
2023/04/14 09:09:02;;;;;;;2.95;2.13;;;9.30;72.40;;;;;;5038153;28;20067;-86
2023/04/14 09:11:29;;;;;;;3.22;1.98;;;9.40;72.30;;;;;;5043576;28;20032;-86
2023/04/14 09:13:57;;;;;;;2.83;1.92;;;9.50;72.20;;;;;;5046243;28;20049;-84
2023/04/14 09:16:25;;;;;;;2.10;1.70;;;9.60;72.80;;;;;;5011977;28;20037;-85
2023/04/14 09:18:52;;;;;;;3.40;1.98;;;9.70;72.00;;;;;;5022229;28;20093;-87
2023/04/14 09:21:18;;;;;;;3.50;2.10;;;9.70;72.00;;;;;;5005250;28;20037;-87
2023/04/14 09:23:45;;;;;;;3.63;1.90;;;9.90;71.90;;;;;;5021534;28;20021;-84
2023/04/14 09:26:12;;;;;;;2.40;1.88;;;9.90;71.90;;;;;;5004565;28;20034;-83
2023/04/14 09:28:38;;;;;;;2.88;2.03;;;10.00;71.80;;;;;;5037793;28;20436;-83
2023/04/14 09:31:04;;;;;;;2.58;1.88;;;10.10;71.80;;;;;;5021002;28;20030;-84
2023/04/14 09:33:31;;;;;;;2.65;1.85;;;10.20;71.70;;;;;;5004979;28;20128;-86
2023/04/14 09:35:57;;;;;;;1.92;1.73;;;10.30;71.80;;;;;;5038107;28;20548;-86
2023/04/14 09:38:35;;;;;;;2.75;1.85;;;10.40;72.50;;;;;;5021873;28;20057;-84
2023/04/14 09:41:02;;;;;;;1.90;1.60;;;10.50;71.90;;;;;;5039846;28;20160;-84
2023/04/14 09:43:29;;;;;;;1.85;1.60;;;10.60;71.80;;;;;;5036772;28;20036;-84
2023/04/14 09:45:56;;;;;;;3.42;1.70;;;10.70;71.80;;;;;;5036253;28;20037;-83
2023/04/14 09:48:22;;;;;;;2.35;1.60;;;10.80;71.80;;;;;;5020251;28;20037;-84
2023/04/14 09:51:06;;;;;;;1.73;1.60;;;10.90;71.80;;;;;;5035567;28;20112;-84
2023/04/14 09:53:39;;;;;;;1.65;1.50;;;11.00;71.90;;;;;;5035551;28;20055;-85
2023/04/14 09:56:08;;;;;;;3.60;1.67;;;11.10;71.70;;;;;;5018941;28;20049;-83
2023/04/14 09:58:38;;;;;;;2.22;1.60;;;11.20;71.60;;;;;;5019334;28;20113;-86
2023/04/14 10:01:16;;;;;;;2.35;1.55;;;11.30;71.60;;;;;;5036435;28;20025;-86
2023/04/14 10:03:44;;;;;;;2.42;1.50;;;11.40;71.70;;;;;;5018771;28;20034;-84
2023/04/14 10:06:19;;;;;;;1.63;1.40;;;11.50;71.60;;;;;;5002108;28;20029;-82
2023/04/14 10:08:48;;;;;;;2.10;1.45;;;11.60;71.60;;;;;;5033642;28;20089;-87
2023/04/14 10:11:21;;;;;;;2.85;1.50;;;11.80;71.60;;;;;;5035066;28;20021;-86
2023/04/14 10:13:55;;;;;;;2.05;1.40;;;11.80;71.60;;;;;;5034861;28;20084;-85
2023/04/14 10:16:21;;;;;;;2.35;1.42;;;12.00;71.60;;;;;;5034586;28;20033;-84
2023/04/14 10:18:47;;;;;;;2.03;1.30;;;12.10;71.50;;;;;;5001709;28;20032;-84
2023/04/14 10:21:15;;;;;;;2.17;1.50;;;12.20;71.50;;;;;;5034596;28;20068;-83
2023/04/14 10:23:42;;;;;;;2.15;1.42;;;12.30;71.50;;;;;;5017787;28;20032;-86
2023/04/14 10:26:10;;;;;;;1.40;1.25;;;12.40;71.50;;;;;;5017971;28;20029;-86
2023/04/14 10:28:39;;;;;;;1.80;1.35;;;12.50;71.40;;;;;;5001340;28;20029;-86
2023/04/14 10:31:14;;;;;;;2.55;1.45;;;12.60;71.40;;;;;;5034498;28;20064;-85
2023/04/14 10:33:44;;;;;;;2.78;1.50;;;12.70;71.30;;;;;;5017959;28;20030;-85
2023/04/14 10:36:10;;;;;;;1.83;1.33;;;12.80;71.90;;;;;;5018058;28;20045;-86
2023/04/14 10:38:43;;;;;;;1.95;1.38;;;12.90;71.10;;;;;;5034182;28;20053;-88
2023/04/14 10:41:10;;;;;;;2.63;1.67;;;13.00;71.20;;;;;;5017322;28;20132;-86
2023/04/14 10:43:36;;;;;;;2.70;1.60;;;13.10;71.00;;;;;;5033602;28;20026;-85
2023/04/14 10:46:10;;;;;;;3.40;1.80;;;13.20;70.90;;;;;;5017722;28;20124;-85
2023/04/14 10:48:38;;;;;;;2.15;1.50;;;13.30;70.90;;;;;;5018081;28;20132;-84
2023/04/14 10:51:09;;;;;;;2.08;1.48;;;13.40;70.80;;;;;;5016645;28;20029;-83
2023/04/14 10:53:48;;;;;;;2.95;1.77;;;13.50;70.70;;;;;;5033556;28;20063;-84
2023/04/14 10:56:15;;;;;;;1.38;1.20;;;13.60;70.60;;;;;;5016747;28;20033;-83
2023/04/14 10:58:54;;;;;;;2.90;1.50;;;13.80;70.50;;;;;;5016880;28;20044;-83
2023/04/14 11:01:34;;;;;;;2.15;1.38;;;13.90;70.60;;;;;;5034715;28;20104;-80
2023/04/14 11:04:19;;;;;;;2.72;1.50;;;14.00;70.40;;;;;;5033499;28;20033;-83
2023/04/14 11:06:53;;;;;;;1.77;1.40;;;14.10;70.40;;;;;;5018592;28;20025;-88
2023/04/14 11:09:23;;;;;;;3.60;1.58;;;14.20;70.30;;;;;;5034505;28;20514;-83
2023/04/14 11:11:51;;;;;;;2.08;1.30;;;14.20;70.20;;;;;;5033913;28;20045;-84
2023/04/14 11:14:24;;;;;;;3.88;1.48;;;14.40;70.20;;;;;;5033570;28;20032;-84
2023/04/14 11:16:52;;;;;;;2.28;1.33;;;14.50;70.20;;;;;;5032841;28;20048;-86
2023/04/14 11:19:18;;;;;;;2.50;1.60;;;14.60;70.10;;;;;;5016700;28;20458;-85
2023/04/14 11:21:52;;;;;;;2.13;1.50;;;14.70;70.00;;;;;;5000356;28;20622;-85
2023/04/14 11:24:22;;;;;;;2.92;1.30;;;14.80;70.00;;;;;;5032743;28;20025;-85
2023/04/14 11:26:51;;;;;;;1.70;1.35;;;14.80;69.80;;;;;;5017392;28;20029;-84
2023/04/14 11:29:18;;;;;;;2.97;1.55;;;14.90;69.70;;;;;;5016983;28;20034;-84
2023/04/14 11:31:45;;;;;;;2.35;1.30;;;15.00;69.60;;;;;;5032924;28;20026;-84
2023/04/14 11:34:11;;;;;;;2.33;1.48;;;15.10;69.50;;;;;;5016953;28;20470;-85
2023/04/14 11:36:39;;;;;;;3.17;1.20;;;15.20;70.00;;;;;;5033656;28;20053;-86
2023/04/14 11:39:05;;;;;;;3.58;1.35;;;15.30;69.40;;;;;;5000018;28;20088;-83
2023/04/14 11:41:31;;;;;;;2.90;1.27;;;15.30;69.30;;;;;;5000737;28;20037;-89
2023/04/14 11:43:57;;;;;;;4.28;1.40;;;15.40;69.40;;;;;;5018168;28;20034;-84
2023/04/14 11:46:24;;;;;;;2.88;1.50;;;15.50;69.30;;;;;;5038105;28;20103;-84
2023/04/14 11:48:56;;;;;;;1.98;1.10;;;15.60;69.30;;;;;;5022497;28;20033;-84
2023/04/14 11:51:32;;;;;;;3.40;1.30;;;15.60;69.20;;;;;;5022256;28;20045;-84
2023/04/14 11:53:59;;;;;;;2.00;1.20;;;15.70;69.10;;;;;;5038703;28;20064;-83
2023/04/14 11:56:26;;;;;;;3.75;1.60;;;15.80;69.00;;;;;;5017044;28;20030;-84
2023/04/14 11:59:01;;;;;;;1.67;1.30;;;15.80;68.90;;;;;;5032815;28;20431;-82
2023/04/14 12:01:28;;;;;;;2.97;1.60;;;15.90;68.90;;;;;;5016367;28;20033;-83
2023/04/14 12:03:54;;;;;;;2.67;1.48;;;15.90;68.70;;;;;;5032147;28;20029;-83
2023/04/14 12:06:20;;;;;;;3.10;1.40;;;16.00;68.60;;;;;;5000254;28;20063;-83
2023/04/14 12:08:54;;;;;;;3.55;1.55;;;16.10;68.50;;;;;;5016250;28;20116;-82
2023/04/14 12:11:20;;;;;;;2.85;1.23;;;16.10;68.50;;;;;;4999487;28;20095;-83
2023/04/14 12:13:46;;;;;;;1.33;1.23;;;16.20;68.50;;;;;;5015635;28;20025;-82
2023/04/14 12:16:13;;;;;;;1.73;1.20;;;16.20;68.50;;;;;;5032405;28;20030;-83
2023/04/14 12:18:40;;;;;;;3.55;1.60;;;16.20;68.50;;;;;;5032596;28;20080;-82
2023/04/14 12:21:06;;;;;;;1.42;1.20;;;16.30;68.50;;;;;;5031839;28;20041;-82
2023/04/14 12:23:40;;;;;;;4.85;1.88;;;16.30;68.40;;;;;;5032403;28;20037;-83
2023/04/14 12:26:11;;;;;;;2.20;1.35;;;16.40;68.40;;;;;;5032174;28;20025;-82
2023/04/14 12:28:40;;;;;;;2.10;1.33;;;16.40;68.20;;;;;;5015737;28;20026;-83
2023/04/14 12:31:07;;;;;;;3.88;1.50;;;16.50;68.20;;;;;;5016548;28;20025;-82
2023/04/14 12:33:33;;;;;;;2.83;1.50;;;16.50;68.10;;;;;;5020118;28;20374;-83
2023/04/14 12:36:09;;;;;;;2.60;1.27;;;16.60;68.00;;;;;;5003941;28;20622;-86
2023/04/14 12:38:35;;;;;;;2.72;1.27;;;16.60;67.80;;;;;;5037567;28;20041;-89
2023/04/14 12:41:01;;;;;;;2.78;1.48;;;16.70;67.70;;;;;;4999889;28;20060;-81
2023/04/14 12:43:28;;;;;;;2.13;1.42;;;16.70;67.60;;;;;;5016895;28;20122;-83
2023/04/14 12:45:54;;;;;;;2.08;1.42;;;16.80;67.60;;;;;;4999218;28;20052;-83
2023/04/14 12:48:21;;;;;;;1.55;1.20;;;16.80;67.50;;;;;;5016421;28;20046;-83
2023/04/14 12:50:46;;;;;;;2.40;1.25;;;16.80;67.50;;;;;;5015483;28;20025;-84
2023/04/14 12:53:27;;;;;;;1.42;1.33;;;16.90;68.20;;;;;;5016559;28;20026;-82
2023/04/14 12:56:09;;;;;;;3.28;1.38;;;17.00;67.50;;;;;;5015693;28;20042;-82
2023/04/14 12:58:39;;;;;;;1.63;1.10;;;17.00;67.30;;;;;;5015680;28;20057;-82
2023/04/14 13:01:09;;;;;;;2.88;1.33;;;17.00;67.10;;;;;;4999550;28;20084;-83